sensor_id;sensor_type;location;lat;lon;timestamp;temperature;humidity
17807;DHT22;9027;48.938;9.182;2023-03-11T00:00:52;4.80;99.90
17807;DHT22;9027;48.938;9.182;2023-03-11T00:02:25;4.80;99.90
17807;DHT22;9027;48.938;9.182;2023-03-11T00:03:58;4.70;99.90
17807;DHT22;9027;48.938;9.182;2023-03-11T00:05:32;4.70;99.90
17807;DHT22;9027;48.938;9.182;2023-03-11T00:07:05;4.70;99.90
17807;DHT22;9027;48.938;9.182;2023-03-11T00:08:37;4.70;99.90
17807;DHT22;9027;48.938;9.182;2023-03-11T00:10:13;4.70;99.90
17807;DHT22;9027;48.938;9.182;2023-03-11T00:11:45;4.60;99.90
17807;DHT22;9027;48.938;9.182;2023-03-11T00:13:18;4.60;99.90
17807;DHT22;9027;48.938;9.182;2023-03-11T00:14:50;4.70;99.90
17807;DHT22;9027;48.938;9.182;2023-03-11T00:16:22;4.70;99.90
17807;DHT22;9027;48.938;9.182;2023-03-11T00:17:55;4.70;99.90
17807;DHT22;9027;48.938;9.182;2023-03-11T00:19:27;4.60;99.90
17807;DHT22;9027;48.938;9.182;2023-03-11T00:20:59;4.60;99.90
17807;DHT22;9027;48.938;9.182;2023-03-11T00:22:32;4.50;99.90
17807;DHT22;9027;48.938;9.182;2023-03-11T00:24:05;4.50;99.90
17807;DHT22;9027;48.938;9.182;2023-03-11T00:25:38;4.50;99.90
17807;DHT22;9027;48.938;9.182;2023-03-11T00:27:09;4.50;99.90
17807;DHT22;9027;48.938;9.182;2023-03-11T00:28:41;4.50;99.90
17807;DHT22;9027;48.938;9.182;2023-03-11T00:30:15;4.50;99.90
17807;DHT22;9027;48.938;9.182;2023-03-11T00:31:47;4.50;99.90
17807;DHT22;9027;48.938;9.182;2023-03-11T00:33:20;4.40;99.90
17807;DHT22;9027;48.938;9.182;2023-03-11T00:34:52;4.40;99.90
17807;DHT22;9027;48.938;9.182;2023-03-11T00:36:27;4.40;99.90
17807;DHT22;9027;48.938;9.182;2023-03-11T00:38:02;4.30;99.90
17807;DHT22;9027;48.938;9.182;2023-03-11T00:39:34;4.40;99.90
17807;DHT22;9027;48.938;9.182;2023-03-11T00:41:06;4.40;99.90
17807;DHT22;9027;48.938;9.182;2023-03-11T00:42:38;4.30;99.90
17807;DHT22;9027;48.938;9.182;2023-03-11T00:44:09;4.30;99.90
17807;DHT22;9027;48.938;9.182;2023-03-11T00:45:42;4.20;99.90
17807;DHT22;9027;48.938;9.182;2023-03-11T00:47:14;4.20;99.90
17807;DHT22;9027;48.938;9.182;2023-03-11T00:48:46;4.20;99.90
17807;DHT22;9027;48.938;9.182;2023-03-11T00:50:22;4.20;99.90
17807;DHT22;9027;48.938;9.182;2023-03-11T00:51:54;4.20;99.90
17807;DHT22;9027;48.938;9.182;2023-03-11T00:53:26;4.20;99.90
17807;DHT22;9027;48.938;9.182;2023-03-11T00:54:58;4.10;99.90
17807;DHT22;9027;48.938;9.182;2023-03-11T00:56:30;4.10;99.90
17807;DHT22;9027;48.938;9.182;2023-03-11T00:58:06;4.10;99.90
17807;DHT22;9027;48.938;9.182;2023-03-11T00:59:45;4.10;99.90
17807;DHT22;9027;48.938;9.182;2023-03-11T01:01:18;4.10;99.90
17807;DHT22;9027;48.938;9.182;2023-03-11T01:02:51;4.10;99.90
17807;DHT22;9027;48.938;9.182;2023-03-11T01:04:28;4.10;99.90
17807;DHT22;9027;48.938;9.182;2023-03-11T01:06:00;4.20;99.90
17807;DHT22;9027;48.938;9.182;2023-03-11T01:07:32;4.10;99.90
17807;DHT22;9027;48.938;9.182;2023-03-11T01:09:03;4.10;99.90
17807;DHT22;9027;48.938;9.182;2023-03-11T01:10:35;4.10;99.90
17807;DHT22;9027;48.938;9.182;2023-03-11T01:12:10;4.10;99.90
17807;DHT22;9027;48.938;9.182;2023-03-11T01:13:41;4.10;99.90
17807;DHT22;9027;48.938;9.182;2023-03-11T01:15:20;4.00;99.90
17807;DHT22;9027;48.938;9.182;2023-03-11T01:16:52;4.00;99.90
17807;DHT22;9027;48.938;9.182;2023-03-11T01:18:25;4.00;99.90
17807;DHT22;9027;48.938;9.182;2023-03-11T01:19:58;4.00;99.90
17807;DHT22;9027;48.938;9.182;2023-03-11T01:21:30;4.00;99.90
17807;DHT22;9027;48.938;9.182;2023-03-11T01:23:04;4.00;99.90
17807;DHT22;9027;48.938;9.182;2023-03-11T01:24:35;4.00;99.90
17807;DHT22;9027;48.938;9.182;2023-03-11T01:26:08;4.00;99.90
17807;DHT22;9027;48.938;9.182;2023-03-11T01:27:40;4.00;99.90
17807;DHT22;9027;48.938;9.182;2023-03-11T01:29:12;4.00;99.90
17807;DHT22;9027;48.938;9.182;2023-03-11T01:30:45;3.90;99.90
17807;DHT22;9027;48.938;9.182;2023-03-11T01:32:18;3.90;99.90
17807;DHT22;9027;48.938;9.182;2023-03-11T01:33:50;3.80;99.90
17807;DHT22;9027;48.938;9.182;2023-03-11T01:35:25;3.80;99.90
17807;DHT22;9027;48.938;9.182;2023-03-11T01:36:57;3.80;99.90
17807;DHT22;9027;48.938;9.182;2023-03-11T01:38:28;3.80;99.90
17807;DHT22;9027;48.938;9.182;2023-03-11T01:40:00;3.80;99.90
17807;DHT22;9027;48.938;9.182;2023-03-11T01:41:32;3.70;99.90
17807;DHT22;9027;48.938;9.182;2023-03-11T01:43:06;3.70;99.90
17807;DHT22;9027;48.938;9.182;2023-03-11T01:44:58;3.70;99.90
17807;DHT22;9027;48.938;9.182;2023-03-11T01:46:32;3.70;99.90
17807;DHT22;9027;48.938;9.182;2023-03-11T01:48:05;3.70;99.90
17807;DHT22;9027;48.938;9.182;2023-03-11T01:49:38;3.70;99.90
17807;DHT22;9027;48.938;9.182;2023-03-11T01:51:15;3.80;99.90
17807;DHT22;9027;48.938;9.182;2023-03-11T01:52:48;3.80;99.90
17807;DHT22;9027;48.938;9.182;2023-03-11T01:54:22;3.80;99.90
17807;DHT22;9027;48.938;9.182;2023-03-11T01:55:55;3.80;99.90
17807;DHT22;9027;48.938;9.182;2023-03-11T01:57:28;3.80;99.90
17807;DHT22;9027;48.938;9.182;2023-03-11T01:59:00;3.70;99.90
17807;DHT22;9027;48.938;9.182;2023-03-11T02:00:32;3.70;99.90
17807;DHT22;9027;48.938;9.182;2023-03-11T02:02:08;3.70;99.90
17807;DHT22;9027;48.938;9.182;2023-03-11T02:03:41;3.70;99.90
17807;DHT22;9027;48.938;9.182;2023-03-11T02:05:13;3.70;99.90
17807;DHT22;9027;48.938;9.182;2023-03-11T02:06:46;3.80;99.90
17807;DHT22;9027;48.938;9.182;2023-03-11T02:08:19;3.80;99.90
17807;DHT22;9027;48.938;9.182;2023-03-11T02:09:51;3.80;99.90
17807;DHT22;9027;48.938;9.182;2023-03-11T02:11:26;3.70;99.90
17807;DHT22;9027;48.938;9.182;2023-03-11T02:13:02;3.70;99.90
17807;DHT22;9027;48.938;9.182;2023-03-11T02:14:35;3.70;99.90
17807;DHT22;9027;48.938;9.182;2023-03-11T02:16:08;3.80;99.90
17807;DHT22;9027;48.938;9.182;2023-03-11T02:17:41;3.80;99.90
17807;DHT22;9027;48.938;9.182;2023-03-11T02:19:23;3.70;99.90
17807;DHT22;9027;48.938;9.182;2023-03-11T02:21:05;3.70;99.90
17807;DHT22;9027;48.938;9.182;2023-03-11T02:22:41;3.70;99.90
17807;DHT22;9027;48.938;9.182;2023-03-11T02:24:16;3.70;99.90
17807;DHT22;9027;48.938;9.182;2023-03-11T02:25:55;3.60;99.90
17807;DHT22;9027;48.938;9.182;2023-03-11T02:27:30;3.60;99.90
17807;DHT22;9027;48.938;9.182;2023-03-11T02:29:06;3.50;99.90
17807;DHT22;9027;48.938;9.182;2023-03-11T02:30:41;3.50;99.90
17807;DHT22;9027;48.938;9.182;2023-03-11T02:32:14;3.50;99.90
17807;DHT22;9027;48.938;9.182;2023-03-11T02:33:48;3.40;99.90
17807;DHT22;9027;48.938;9.182;2023-03-11T02:35:21;3.40;99.90
17807;DHT22;9027;48.938;9.182;2023-03-11T02:36:53;3.40;99.90
17807;DHT22;9027;48.938;9.182;2023-03-11T02:38:25;3.30;99.90
17807;DHT22;9027;48.938;9.182;2023-03-11T02:42:07;3.20;99.90
17807;DHT22;9027;48.938;9.182;2023-03-11T02:43:45;3.20;99.90
17807;DHT22;9027;48.938;9.182;2023-03-11T02:45:22;3.20;99.90
17807;DHT22;9027;48.938;9.182;2023-03-11T02:46:54;3.20;99.90
17807;DHT22;9027;48.938;9.182;2023-03-11T02:48:27;3.30;99.90
17807;DHT22;9027;48.938;9.182;2023-03-11T02:49:59;3.30;99.90
17807;DHT22;9027;48.938;9.182;2023-03-11T02:51:31;3.30;99.90
17807;DHT22;9027;48.938;9.182;2023-03-11T02:53:03;3.30;99.90
17807;DHT22;9027;48.938;9.182;2023-03-11T02:54:35;3.30;99.90
17807;DHT22;9027;48.938;9.182;2023-03-11T02:56:07;3.30;99.90
17807;DHT22;9027;48.938;9.182;2023-03-11T02:57:38;3.20;99.90
17807;DHT22;9027;48.938;9.182;2023-03-11T02:59:12;3.30;99.90
17807;DHT22;9027;48.938;9.182;2023-03-11T03:00:44;3.30;99.90
17807;DHT22;9027;48.938;9.182;2023-03-11T03:02:16;3.20;99.90
17807;DHT22;9027;48.938;9.182;2023-03-11T03:03:48;3.20;99.90
17807;DHT22;9027;48.938;9.182;2023-03-11T03:05:21;3.20;99.90
17807;DHT22;9027;48.938;9.182;2023-03-11T03:06:53;3.20;99.90
17807;DHT22;9027;48.938;9.182;2023-03-11T03:08:25;3.30;99.90
17807;DHT22;9027;48.938;9.182;2023-03-11T03:09:57;3.30;99.90
17807;DHT22;9027;48.938;9.182;2023-03-11T03:11:28;3.20;99.90
17807;DHT22;9027;48.938;9.182;2023-03-11T03:13:00;3.10;99.90
17807;DHT22;9027;48.938;9.182;2023-03-11T03:14:34;3.20;99.90
17807;DHT22;9027;48.938;9.182;2023-03-11T03:16:05;3.10;99.90
17807;DHT22;9027;48.938;9.182;2023-03-11T03:17:37;3.10;99.90
17807;DHT22;9027;48.938;9.182;2023-03-11T03:19:10;3.10;99.90
17807;DHT22;9027;48.938;9.182;2023-03-11T03:20:42;3.00;99.90
17807;DHT22;9027;48.938;9.182;2023-03-11T03:22:14;3.00;99.90
17807;DHT22;9027;48.938;9.182;2023-03-11T03:23:45;3.00;99.90
17807;DHT22;9027;48.938;9.182;2023-03-11T03:25:17;3.00;99.90
17807;DHT22;9027;48.938;9.182;2023-03-11T03:26:49;3.00;99.90
17807;DHT22;9027;48.938;9.182;2023-03-11T03:28:22;2.90;99.90
17807;DHT22;9027;48.938;9.182;2023-03-11T03:29:55;2.90;99.90
17807;DHT22;9027;48.938;9.182;2023-03-11T03:31:27;2.90;99.90
17807;DHT22;9027;48.938;9.182;2023-03-11T03:33:00;2.90;99.90
17807;DHT22;9027;48.938;9.182;2023-03-11T03:34:34;2.90;99.90
17807;DHT22;9027;48.938;9.182;2023-03-11T03:36:07;2.90;99.90
17807;DHT22;9027;48.938;9.182;2023-03-11T03:37:44;2.90;99.90
17807;DHT22;9027;48.938;9.182;2023-03-11T03:39:16;2.80;99.90
17807;DHT22;9027;48.938;9.182;2023-03-11T03:40:50;2.80;99.90
17807;DHT22;9027;48.938;9.182;2023-03-11T03:42:24;2.80;99.90
17807;DHT22;9027;48.938;9.182;2023-03-11T03:43:58;2.70;99.90
17807;DHT22;9027;48.938;9.182;2023-03-11T03:45:32;2.70;99.90
17807;DHT22;9027;48.938;9.182;2023-03-11T03:47:04;2.70;99.90
17807;DHT22;9027;48.938;9.182;2023-03-11T03:48:36;2.70;99.90
17807;DHT22;9027;48.938;9.182;2023-03-11T03:50:11;2.80;99.90
17807;DHT22;9027;48.938;9.182;2023-03-11T03:51:46;2.90;99.90
17807;DHT22;9027;48.938;9.182;2023-03-11T03:53:32;2.90;99.90
17807;DHT22;9027;48.938;9.182;2023-03-11T03:55:05;2.90;99.90
17807;DHT22;9027;48.938;9.182;2023-03-11T03:56:37;3.00;99.90
17807;DHT22;9027;48.938;9.182;2023-03-11T03:58:10;3.00;99.90
17807;DHT22;9027;48.938;9.182;2023-03-11T03:59:42;3.00;99.90
17807;DHT22;9027;48.938;9.182;2023-03-11T04:01:15;3.00;99.90
17807;DHT22;9027;48.938;9.182;2023-03-11T04:02:48;3.00;99.90
17807;DHT22;9027;48.938;9.182;2023-03-11T04:04:28;3.00;99.90
17807;DHT22;9027;48.938;9.182;2023-03-11T04:06:05;2.90;99.90
17807;DHT22;9027;48.938;9.182;2023-03-11T04:07:38;3.00;99.90
17807;DHT22;9027;48.938;9.182;2023-03-11T04:09:11;3.00;99.90
17807;DHT22;9027;48.938;9.182;2023-03-11T04:10:43;3.00;99.90
17807;DHT22;9027;48.938;9.182;2023-03-11T04:12:16;2.90;99.90
17807;DHT22;9027;48.938;9.182;2023-03-11T04:13:48;3.00;99.90
17807;DHT22;9027;48.938;9.182;2023-03-11T04:15:20;3.00;99.90
17807;DHT22;9027;48.938;9.182;2023-03-11T04:16:54;2.90;99.90
17807;DHT22;9027;48.938;9.182;2023-03-11T04:18:27;2.90;99.90
17807;DHT22;9027;48.938;9.182;2023-03-11T04:19:59;2.90;99.90
17807;DHT22;9027;48.938;9.182;2023-03-11T04:21:31;2.90;99.90
17807;DHT22;9027;48.938;9.182;2023-03-11T04:23:02;2.90;99.90
17807;DHT22;9027;48.938;9.182;2023-03-11T04:24:34;2.90;99.90
17807;DHT22;9027;48.938;9.182;2023-03-11T04:26:05;2.90;99.90
17807;DHT22;9027;48.938;9.182;2023-03-11T04:27:38;2.80;99.90
17807;DHT22;9027;48.938;9.182;2023-03-11T04:29:12;2.80;99.90
17807;DHT22;9027;48.938;9.182;2023-03-11T04:30:47;2.70;99.90
17807;DHT22;9027;48.938;9.182;2023-03-11T04:32:20;2.70;99.90
17807;DHT22;9027;48.938;9.182;2023-03-11T04:33:53;2.70;99.90
17807;DHT22;9027;48.938;9.182;2023-03-11T04:35:25;2.70;99.90
17807;DHT22;9027;48.938;9.182;2023-03-11T04:36:57;2.70;99.90
17807;DHT22;9027;48.938;9.182;2023-03-11T04:38:34;2.60;99.90
17807;DHT22;9027;48.938;9.182;2023-03-11T04:40:07;2.60;99.90
17807;DHT22;9027;48.938;9.182;2023-03-11T04:41:40;2.60;99.90
17807;DHT22;9027;48.938;9.182;2023-03-11T04:43:14;2.60;99.90
17807;DHT22;9027;48.938;9.182;2023-03-11T04:44:46;2.60;99.90
17807;DHT22;9027;48.938;9.182;2023-03-11T04:46:18;2.60;99.90
17807;DHT22;9027;48.938;9.182;2023-03-11T04:47:51;2.60;99.90
17807;DHT22;9027;48.938;9.182;2023-03-11T04:49:23;2.70;99.90
17807;DHT22;9027;48.938;9.182;2023-03-11T04:50:56;2.60;99.90
17807;DHT22;9027;48.938;9.182;2023-03-11T04:52:27;2.70;99.90
17807;DHT22;9027;48.938;9.182;2023-03-11T04:53:59;2.70;99.90
17807;DHT22;9027;48.938;9.182;2023-03-11T04:55:33;2.70;99.90
17807;DHT22;9027;48.938;9.182;2023-03-11T04:57:04;2.80;99.90
17807;DHT22;9027;48.938;9.182;2023-03-11T04:58:37;2.80;99.90
17807;DHT22;9027;48.938;9.182;2023-03-11T05:00:12;2.80;99.90
17807;DHT22;9027;48.938;9.182;2023-03-11T05:01:46;2.90;99.90
17807;DHT22;9027;48.938;9.182;2023-03-11T05:03:20;2.80;99.90
17807;DHT22;9027;48.938;9.182;2023-03-11T05:04:51;2.80;99.90
17807;DHT22;9027;48.938;9.182;2023-03-11T05:06:23;2.70;99.90
17807;DHT22;9027;48.938;9.182;2023-03-11T05:07:55;2.70;99.90
17807;DHT22;9027;48.938;9.182;2023-03-11T05:09:28;2.60;99.90
17807;DHT22;9027;48.938;9.182;2023-03-11T05:11:00;2.60;99.90
17807;DHT22;9027;48.938;9.182;2023-03-11T05:12:31;2.60;99.90
17807;DHT22;9027;48.938;9.182;2023-03-11T05:14:03;2.60;99.90
17807;DHT22;9027;48.938;9.182;2023-03-11T05:15:35;2.60;99.90
17807;DHT22;9027;48.938;9.182;2023-03-11T05:17:07;2.60;99.90
17807;DHT22;9027;48.938;9.182;2023-03-11T05:18:41;2.60;99.90
17807;DHT22;9027;48.938;9.182;2023-03-11T05:20:16;2.50;99.90
17807;DHT22;9027;48.938;9.182;2023-03-11T05:21:48;2.50;99.90
17807;DHT22;9027;48.938;9.182;2023-03-11T05:23:20;2.50;99.90
17807;DHT22;9027;48.938;9.182;2023-03-11T05:24:52;2.50;99.90
17807;DHT22;9027;48.938;9.182;2023-03-11T05:26:24;2.50;99.90
17807;DHT22;9027;48.938;9.182;2023-03-11T05:27:57;2.40;99.90
17807;DHT22;9027;48.938;9.182;2023-03-11T05:29:29;2.40;99.90
17807;DHT22;9027;48.938;9.182;2023-03-11T05:31:01;2.30;99.90
17807;DHT22;9027;48.938;9.182;2023-03-11T05:32:35;2.40;99.90
17807;DHT22;9027;48.938;9.182;2023-03-11T05:34:08;2.30;99.90
17807;DHT22;9027;48.938;9.182;2023-03-11T05:35:40;2.30;99.90
17807;DHT22;9027;48.938;9.182;2023-03-11T05:37:13;2.30;99.90
17807;DHT22;9027;48.938;9.182;2023-03-11T05:38:45;2.30;99.90
17807;DHT22;9027;48.938;9.182;2023-03-11T05:40:19;2.30;99.90
17807;DHT22;9027;48.938;9.182;2023-03-11T05:41:51;2.40;99.90
17807;DHT22;9027;48.938;9.182;2023-03-11T05:43:23;2.30;99.90
17807;DHT22;9027;48.938;9.182;2023-03-11T05:44:58;2.30;99.90
17807;DHT22;9027;48.938;9.182;2023-03-11T05:46:31;2.30;99.90
17807;DHT22;9027;48.938;9.182;2023-03-11T05:48:04;2.30;99.90
17807;DHT22;9027;48.938;9.182;2023-03-11T05:49:38;2.30;99.90
17807;DHT22;9027;48.938;9.182;2023-03-11T05:51:10;2.30;99.90
17807;DHT22;9027;48.938;9.182;2023-03-11T05:52:44;2.40;99.90
17807;DHT22;9027;48.938;9.182;2023-03-11T05:54:16;2.40;99.90
17807;DHT22;9027;48.938;9.182;2023-03-11T05:55:57;2.40;99.90
17807;DHT22;9027;48.938;9.182;2023-03-11T05:57:30;2.40;99.90
17807;DHT22;9027;48.938;9.182;2023-03-11T05:59:02;2.40;99.90
17807;DHT22;9027;48.938;9.182;2023-03-11T06:00:38;2.40;99.90
17807;DHT22;9027;48.938;9.182;2023-03-11T06:02:09;2.40;99.90
17807;DHT22;9027;48.938;9.182;2023-03-11T06:03:43;2.40;99.90
17807;DHT22;9027;48.938;9.182;2023-03-11T06:05:17;2.50;99.90
17807;DHT22;9027;48.938;9.182;2023-03-11T06:06:50;2.50;99.90
17807;DHT22;9027;48.938;9.182;2023-03-11T06:08:25;2.60;99.90
17807;DHT22;9027;48.938;9.182;2023-03-11T06:09:57;2.60;99.90
17807;DHT22;9027;48.938;9.182;2023-03-11T06:11:29;2.50;99.90
17807;DHT22;9027;48.938;9.182;2023-03-11T06:13:01;2.50;99.90
17807;DHT22;9027;48.938;9.182;2023-03-11T06:14:37;2.50;99.90
17807;DHT22;9027;48.938;9.182;2023-03-11T06:16:09;2.50;99.90
17807;DHT22;9027;48.938;9.182;2023-03-11T06:17:41;2.50;99.90
17807;DHT22;9027;48.938;9.182;2023-03-11T06:19:13;2.60;99.90
17807;DHT22;9027;48.938;9.182;2023-03-11T06:20:51;2.60;99.90
17807;DHT22;9027;48.938;9.182;2023-03-11T06:22:23;2.70;99.90
17807;DHT22;9027;48.938;9.182;2023-03-11T06:23:55;2.70;99.90
17807;DHT22;9027;48.938;9.182;2023-03-11T06:25:27;2.70;99.90
17807;DHT22;9027;48.938;9.182;2023-03-11T06:26:59;2.60;99.90
17807;DHT22;9027;48.938;9.182;2023-03-11T06:28:33;2.60;99.90
17807;DHT22;9027;48.938;9.182;2023-03-11T06:30:06;2.60;99.90
17807;DHT22;9027;48.938;9.182;2023-03-11T06:31:44;2.70;99.90
17807;DHT22;9027;48.938;9.182;2023-03-11T06:33:17;2.70;99.90
17807;DHT22;9027;48.938;9.182;2023-03-11T06:34:50;2.80;99.90
17807;DHT22;9027;48.938;9.182;2023-03-11T06:36:24;2.70;99.90
17807;DHT22;9027;48.938;9.182;2023-03-11T06:37:56;2.80;99.90
17807;DHT22;9027;48.938;9.182;2023-03-11T06:39:27;2.90;99.90
17807;DHT22;9027;48.938;9.182;2023-03-11T06:41:00;3.00;99.90
17807;DHT22;9027;48.938;9.182;2023-03-11T06:42:32;3.00;99.90
17807;DHT22;9027;48.938;9.182;2023-03-11T06:44:05;3.20;99.90
17807;DHT22;9027;48.938;9.182;2023-03-11T06:45:37;3.30;99.90
17807;DHT22;9027;48.938;9.182;2023-03-11T06:47:09;3.30;99.90
17807;DHT22;9027;48.938;9.182;2023-03-11T06:48:42;3.40;99.90
17807;DHT22;9027;48.938;9.182;2023-03-11T06:50:15;3.50;99.90
17807;DHT22;9027;48.938;9.182;2023-03-11T06:51:49;3.50;99.90
17807;DHT22;9027;48.938;9.182;2023-03-11T06:53:22;3.60;99.90
17807;DHT22;9027;48.938;9.182;2023-03-11T06:54:56;3.60;99.90
17807;DHT22;9027;48.938;9.182;2023-03-11T06:56:32;3.90;99.90
17807;DHT22;9027;48.938;9.182;2023-03-11T06:58:09;4.30;99.90
17807;DHT22;9027;48.938;9.182;2023-03-11T06:59:41;5.00;99.90
17807;DHT22;9027;48.938;9.182;2023-03-11T07:01:16;5.50;99.90
17807;DHT22;9027;48.938;9.182;2023-03-11T07:02:48;5.70;99.90
17807;DHT22;9027;48.938;9.182;2023-03-11T07:04:21;5.90;99.90
17807;DHT22;9027;48.938;9.182;2023-03-11T07:05:53;6.20;99.90
17807;DHT22;9027;48.938;9.182;2023-03-11T07:07:26;6.80;99.90
17807;DHT22;9027;48.938;9.182;2023-03-11T07:08:58;6.90;99.90
17807;DHT22;9027;48.938;9.182;2023-03-11T07:10:31;6.90;99.90
17807;DHT22;9027;48.938;9.182;2023-03-11T07:12:03;6.90;99.90
17807;DHT22;9027;48.938;9.182;2023-03-11T07:13:39;6.80;99.90
17807;DHT22;9027;48.938;9.182;2023-03-11T07:15:11;6.80;99.90
17807;DHT22;9027;48.938;9.182;2023-03-11T07:16:44;6.70;99.90
17807;DHT22;9027;48.938;9.182;2023-03-11T07:18:31;6.70;99.90
17807;DHT22;9027;48.938;9.182;2023-03-11T07:20:03;7.00;99.90
17807;DHT22;9027;48.938;9.182;2023-03-11T07:21:37;7.40;99.90
17807;DHT22;9027;48.938;9.182;2023-03-11T07:23:10;7.80;99.90
17807;DHT22;9027;48.938;9.182;2023-03-11T07:24:44;8.00;99.90
17807;DHT22;9027;48.938;9.182;2023-03-11T07:26:16;8.20;99.90
17807;DHT22;9027;48.938;9.182;2023-03-11T07:27:48;8.70;99.90
17807;DHT22;9027;48.938;9.182;2023-03-11T07:29:20;9.20;99.90
17807;DHT22;9027;48.938;9.182;2023-03-11T07:30:53;8.90;99.90
17807;DHT22;9027;48.938;9.182;2023-03-11T07:32:25;8.90;99.90
17807;DHT22;9027;48.938;9.182;2023-03-11T07:33:58;9.60;99.90
17807;DHT22;9027;48.938;9.182;2023-03-11T07:35:30;9.90;99.90
17807;DHT22;9027;48.938;9.182;2023-03-11T07:37:02;10.50;99.90
17807;DHT22;9027;48.938;9.182;2023-03-11T07:38:36;10.70;99.90
17807;DHT22;9027;48.938;9.182;2023-03-11T07:40:09;10.80;99.90
17807;DHT22;9027;48.938;9.182;2023-03-11T07:41:41;10.70;99.90
17807;DHT22;9027;48.938;9.182;2023-03-11T07:43:13;10.30;99.90
17807;DHT22;9027;48.938;9.182;2023-03-11T07:44:45;9.80;99.90
17807;DHT22;9027;48.938;9.182;2023-03-11T07:46:17;9.10;99.90
17807;DHT22;9027;48.938;9.182;2023-03-11T07:47:49;8.50;99.90
17807;DHT22;9027;48.938;9.182;2023-03-11T07:49:20;8.40;99.90
17807;DHT22;9027;48.938;9.182;2023-03-11T07:50:59;8.50;99.90
17807;DHT22;9027;48.938;9.182;2023-03-11T07:52:31;9.10;99.90
17807;DHT22;9027;48.938;9.182;2023-03-11T07:54:05;10.20;99.90
17807;DHT22;9027;48.938;9.182;2023-03-11T07:55:37;11.60;99.90
17807;DHT22;9027;48.938;9.182;2023-03-11T07:57:08;12.50;99.90
17807;DHT22;9027;48.938;9.182;2023-03-11T07:58:46;13.70;99.90
17807;DHT22;9027;48.938;9.182;2023-03-11T08:00:19;14.10;95.30
17807;DHT22;9027;48.938;9.182;2023-03-11T08:01:51;13.90;94.60
17807;DHT22;9027;48.938;9.182;2023-03-11T08:03:23;13.90;93.50
17807;DHT22;9027;48.938;9.182;2023-03-11T08:04:55;13.80;93.40
17807;DHT22;9027;48.938;9.182;2023-03-11T08:06:30;13.40;92.60
17807;DHT22;9027;48.938;9.182;2023-03-11T08:08:02;13.70;93.10
17807;DHT22;9027;48.938;9.182;2023-03-11T08:09:35;13.50;92.20
17807;DHT22;9027;48.938;9.182;2023-03-11T08:11:07;13.10;91.60
17807;DHT22;9027;48.938;9.182;2023-03-11T08:12:39;13.10;92.10
17807;DHT22;9027;48.938;9.182;2023-03-11T08:14:11;12.90;91.90
17807;DHT22;9027;48.938;9.182;2023-03-11T08:15:43;12.80;92.40
17807;DHT22;9027;48.938;9.182;2023-03-11T08:17:16;12.50;92.80
17807;DHT22;9027;48.938;9.182;2023-03-11T08:18:49;12.20;93.80
17807;DHT22;9027;48.938;9.182;2023-03-11T08:20:21;12.20;93.50
17807;DHT22;9027;48.938;9.182;2023-03-11T08:21:53;12.50;94.00
17807;DHT22;9027;48.938;9.182;2023-03-11T08:23:25;12.80;99.90
17807;DHT22;9027;48.938;9.182;2023-03-11T08:24:58;13.30;99.90
17807;DHT22;9027;48.938;9.182;2023-03-11T08:26:31;13.70;99.90
17807;DHT22;9027;48.938;9.182;2023-03-11T08:28:03;14.20;99.90
17807;DHT22;9027;48.938;9.182;2023-03-11T08:29:37;14.30;99.90
17807;DHT22;9027;48.938;9.182;2023-03-11T08:31:13;14.60;99.70
17807;DHT22;9027;48.938;9.182;2023-03-11T08:32:45;14.00;99.90
17807;DHT22;9027;48.938;9.182;2023-03-11T08:34:17;13.80;93.70
17807;DHT22;9027;48.938;9.182;2023-03-11T08:35:50;13.50;96.00
17807;DHT22;9027;48.938;9.182;2023-03-11T08:37:22;13.20;93.50
17807;DHT22;9027;48.938;9.182;2023-03-11T08:38:54;12.60;93.50
17807;DHT22;9027;48.938;9.182;2023-03-11T08:40:27;12.00;94.50
17807;DHT22;9027;48.938;9.182;2023-03-11T08:42:00;11.80;95.30
17807;DHT22;9027;48.938;9.182;2023-03-11T08:43:32;11.90;96.00
17807;DHT22;9027;48.938;9.182;2023-03-11T08:45:05;11.90;97.40
17807;DHT22;9027;48.938;9.182;2023-03-11T08:46:38;11.90;96.20
17807;DHT22;9027;48.938;9.182;2023-03-11T08:48:10;11.90;95.70
17807;DHT22;9027;48.938;9.182;2023-03-11T08:49:42;11.70;95.70
17807;DHT22;9027;48.938;9.182;2023-03-11T08:51:15;11.10;95.50
17807;DHT22;9027;48.938;9.182;2023-03-11T08:52:47;10.80;97.20
17807;DHT22;9027;48.938;9.182;2023-03-11T08:54:19;11.00;97.60
17807;DHT22;9027;48.938;9.182;2023-03-11T08:55:52;11.20;96.80
17807;DHT22;9027;48.938;9.182;2023-03-11T08:57:24;10.70;97.20
17807;DHT22;9027;48.938;9.182;2023-03-11T08:58:56;10.80;98.10
17807;DHT22;9027;48.938;9.182;2023-03-11T09:00:28;10.90;97.60
17807;DHT22;9027;48.938;9.182;2023-03-11T09:02:00;10.90;97.40
17807;DHT22;9027;48.938;9.182;2023-03-11T09:03:32;10.90;97.50
17807;DHT22;9027;48.938;9.182;2023-03-11T09:05:05;11.00;97.40
17807;DHT22;9027;48.938;9.182;2023-03-11T09:06:41;11.20;97.30
17807;DHT22;9027;48.938;9.182;2023-03-11T09:08:13;11.40;97.10
17807;DHT22;9027;48.938;9.182;2023-03-11T09:09:45;11.10;97.00
17807;DHT22;9027;48.938;9.182;2023-03-11T09:11:18;11.00;95.80
17807;DHT22;9027;48.938;9.182;2023-03-11T09:12:52;11.00;96.20
17807;DHT22;9027;48.938;9.182;2023-03-11T09:14:24;10.90;96.50
17807;DHT22;9027;48.938;9.182;2023-03-11T09:15:56;10.40;96.70
17807;DHT22;9027;48.938;9.182;2023-03-11T09:17:28;10.10;96.90
17807;DHT22;9027;48.938;9.182;2023-03-11T09:19:00;9.60;97.00
17807;DHT22;9027;48.938;9.182;2023-03-11T09:20:36;9.40;97.70
17807;DHT22;9027;48.938;9.182;2023-03-11T09:22:09;9.10;98.60
17807;DHT22;9027;48.938;9.182;2023-03-11T09:23:41;8.90;99.00
17807;DHT22;9027;48.938;9.182;2023-03-11T09:25:13;8.90;99.70
17807;DHT22;9027;48.938;9.182;2023-03-11T09:26:46;9.30;99.90
17807;DHT22;9027;48.938;9.182;2023-03-11T09:28:18;9.60;98.70
17807;DHT22;9027;48.938;9.182;2023-03-11T09:29:50;9.80;99.40
17807;DHT22;9027;48.938;9.182;2023-03-11T09:31:23;10.10;98.10
17807;DHT22;9027;48.938;9.182;2023-03-11T09:32:55;10.40;98.20
17807;DHT22;9027;48.938;9.182;2023-03-11T09:34:27;10.60;97.70
17807;DHT22;9027;48.938;9.182;2023-03-11T09:35:59;10.50;98.00
17807;DHT22;9027;48.938;9.182;2023-03-11T09:37:31;10.50;98.00
17807;DHT22;9027;48.938;9.182;2023-03-11T09:39:03;10.50;97.40
17807;DHT22;9027;48.938;9.182;2023-03-11T09:40:47;10.30;97.10
17807;DHT22;9027;48.938;9.182;2023-03-11T09:42:28;9.80;97.30
17807;DHT22;9027;48.938;9.182;2023-03-11T09:44:11;9.70;97.40
17807;DHT22;9027;48.938;9.182;2023-03-11T09:45:49;9.50;97.60
17807;DHT22;9027;48.938;9.182;2023-03-11T09:47:32;9.50;97.10
17807;DHT22;9027;48.938;9.182;2023-03-11T09:49:15;9.20;97.50
17807;DHT22;9027;48.938;9.182;2023-03-11T09:50:52;9.10;98.00
17807;DHT22;9027;48.938;9.182;2023-03-11T09:52:32;9.20;96.90
17807;DHT22;9027;48.938;9.182;2023-03-11T09:54:10;9.10;97.20
17807;DHT22;9027;48.938;9.182;2023-03-11T09:55:44;9.00;97.40
17807;DHT22;9027;48.938;9.182;2023-03-11T09:57:20;8.80;97.80
17807;DHT22;9027;48.938;9.182;2023-03-11T09:58:57;8.80;98.40
17807;DHT22;9027;48.938;9.182;2023-03-11T10:00:31;9.00;98.70
17807;DHT22;9027;48.938;9.182;2023-03-11T10:02:04;9.10;98.30
17807;DHT22;9027;48.938;9.182;2023-03-11T10:03:36;9.30;97.90
17807;DHT22;9027;48.938;9.182;2023-03-11T10:05:12;9.40;96.90
17807;DHT22;9027;48.938;9.182;2023-03-11T10:06:46;9.60;96.70
17807;DHT22;9027;48.938;9.182;2023-03-11T10:08:22;9.90;97.70
17807;DHT22;9027;48.938;9.182;2023-03-11T10:09:56;9.90;96.50